Weather History for KERY - December, 2011

Change the Weather History Date:

Saturday, December 10, 2011

  Actual Average Record
Temperature  
Mean Temperature 17 °F -  
Max Temperature 26 °F 29 °F 47 °F (1911)
Min Temperature 8 °F 15 °F -8 °F (2013)
Degree Days  
Heating Degree Days 48    
Moisture  
Dew Point 5 °F    
Average Humidity 64    
Maximum Humidity 79    
Minimum Humidity 36    
Precipitation  
Precipitation 0.00 in - - ()
Sea Level Pressure  
Sea Level Pressure 30.23 in    
Wind  
Wind Speed 11 mph (SW)    
Max Wind Speed 16 mph    
Max Gust Speed 17 mph    
Visibility 10 miles    
Events Snow    
Averages and records for this station are not official NWS values.
T = Trace of Precipitation, MM = Missing Value Source: NWS Daily Summary

Daily Weather History Graph

Daily Weather History Graph

Search for Another Location

Airport or City:

Trip Planner

Search our weather history database for the weather conditions in past years. The results will help you decide how hot, cold, wet, or windy it might be!

Date:

Astronomy

Dec. 10, 2011 Rise Set
Actual Time 8:13 AM EST 4:55 PM EST
Civil Twilight 7:39 AM EST 5:29 PM EST
Nautical Twilight 7:01 AM EST 6:07 PM EST
Astronomical Twilight 6:24 AM EST 6:44 PM EST
Moon 5:07 PM EST (12/10) 8:14 AM EST (12/10)
Length of Visible Light 9h 50m
Length of Day
8h 41m
Full, 100% of the Moon is Illuminated
Dec 10
Full
Dec 17
Last Quarter
Dec 24
New
Jan 1
First Quarter
Jan 9
Full

Hourly Weather History & Observations

Time (EST) Temp. Windchill Dew Point Humidity Pressure Visibility Wind Dir Wind Speed Gust Speed Precip Events Conditions
12:15 AM 12.2 °F -1.8 °F 1.4 °F 62% 30.19 in 10.0 mi WSW 11.5 mph - N/A   Clear
12:34 AM 12.2 °F -1.8 °F 1.4 °F 62% 30.19 in 10.0 mi WSW 11.5 mph - N/A   Clear
12:54 AM 10.4 °F -4.1 °F 1.4 °F 67% 30.19 in 10.0 mi WSW 11.5 mph - N/A   Clear
1:15 AM 10.4 °F -3.3 °F 1.4 °F 67% 30.20 in 10.0 mi WSW 10.4 mph - N/A   Clear
1:34 AM 10.4 °F -4.1 °F 1.4 °F 67% 30.19 in 10.0 mi WSW 11.5 mph - N/A   Clear
1:54 AM 10.4 °F -4.8 °F 1.4 °F 67% 30.20 in 10.0 mi WSW 12.7 mph - N/A   Clear
2:15 AM 10.4 °F -4.1 °F 1.4 °F 67% 30.20 in 10.0 mi WSW 11.5 mph - N/A   Clear
2:34 AM 10.4 °F -4.8 °F 1.4 °F 67% 30.20 in 10.0 mi WSW 12.7 mph - N/A   Mostly Cloudy
2:55 AM 10.4 °F -4.1 °F 3.2 °F 73% 30.21 in 10.0 mi WSW 11.5 mph - N/A   Mostly Cloudy
3:14 AM 10.4 °F -4.1 °F 3.2 °F 73% 30.21 in 10.0 mi WSW 11.5 mph - N/A   Mostly Cloudy
3:34 AM 10.4 °F -4.1 °F 3.2 °F 73% 30.21 in 10.0 mi WSW 11.5 mph 16.1 mph N/A   Mostly Cloudy
3:55 AM 10.4 °F -4.1 °F 3.2 °F 73% 30.22 in 10.0 mi WSW 11.5 mph - N/A   Overcast
4:14 AM 10.4 °F -4.1 °F 3.2 °F 73% 30.21 in 10.0 mi WSW 11.5 mph - N/A   Overcast
4:34 AM 10.4 °F -4.8 °F 3.2 °F 73% 30.22 in 10.0 mi WSW 12.7 mph - N/A   Scattered Clouds
4:55 AM 8.6 °F -5.5 °F 3.2 °F 79% 30.21 in 10.0 mi SW 10.4 mph - N/A   Scattered Clouds
5:14 AM 8.6 °F -5.5 °F 3.2 °F 79% 30.21 in 10.0 mi SW 10.4 mph - N/A   Clear
5:34 AM 8.6 °F -5.5 °F 3.2 °F 79% 30.22 in 10.0 mi SW 10.4 mph - N/A   Clear
5:54 AM 8.6 °F -4.7 °F 3.2 °F 79% 30.22 in 10.0 mi SW 9.2 mph - N/A   Clear
6:14 AM 8.6 °F -5.5 °F 3.2 °F 79% 30.23 in 10.0 mi WSW 10.4 mph - N/A   Clear
6:35 AM 8.6 °F -5.5 °F 3.2 °F 79% 30.23 in 10.0 mi SW 10.4 mph - N/A   Clear
7:14 AM 8.6 °F -6.3 °F 3.2 °F 79% 30.24 in 10.0 mi SW 11.5 mph - N/A   Clear
7:35 AM 8.6 °F -5.5 °F 3.2 °F 79% 30.24 in 10.0 mi SW 10.4 mph - N/A   Clear
7:54 AM 8.6 °F -5.5 °F 3.2 °F 79% 30.25 in 10.0 mi SW 10.4 mph - N/A   Clear
8:14 AM 10.4 °F -1.5 °F 3.2 °F 73% 30.25 in 10.0 mi WSW 8.1 mph - N/A   Clear
8:35 AM 10.4 °F -0.4 °F 3.2 °F 73% 30.25 in 10.0 mi WSW 6.9 mph - N/A   Clear
8:54 AM 12.2 °F -0.2 °F 5.0 °F 73% 30.25 in 10.0 mi SW 9.2 mph - N/A   Clear
9:14 AM 12.2 °F 1.7 °F 5.0 °F 73% 30.25 in 10.0 mi SW 6.9 mph - N/A   Clear
9:35 AM 14.0 °F 1.2 °F 5.0 °F 67% 30.26 in 10.0 mi WSW 10.4 mph - N/A   Scattered Clouds
9:54 AM 14.0 °F 0.5 °F 5.0 °F 67% 30.26 in 10.0 mi SW 11.5 mph - N/A   Scattered Clouds
10:15 AM 14.0 °F 0.5 °F 6.8 °F 73% 30.27 in 10.0 mi WSW 11.5 mph - N/A   Scattered Clouds
10:34 AM 15.8 °F 2.7 °F 6.8 °F 68% 30.27 in 10.0 mi SW 11.5 mph - N/A   Mostly Cloudy
10:54 AM 15.8 °F 2.1 °F 6.8 °F 68% 30.27 in 10.0 mi SW 12.7 mph - N/A   Scattered Clouds
11:15 AM 17.6 °F 3.7 °F 6.8 °F 63% 30.28 in 5.0 mi SW 13.8 mph - N/A   Haze
11:34 AM 17.6 °F 3.7 °F 6.8 °F 63% 30.27 in 3.0 mi SW 13.8 mph - N/A   Haze
12:15 PM 19.4 °F 5.5 °F 5.0 °F 54% 30.26 in 10.0 mi SW 15.0 mph - N/A   Scattered Clouds
12:34 PM 19.4 °F 6.6 °F 3.2 °F 49% 30.25 in 10.0 mi SW 12.7 mph - N/A   Overcast
12:55 PM 19.4 °F 5.0 °F 1.4 °F 46% 30.25 in 10.0 mi SW 16.1 mph - N/A   Overcast
1:15 PM 19.4 °F 6.6 °F -0.4 °F 42% 30.25 in 10.0 mi SW 12.7 mph - N/A   Overcast
1:34 PM 21.2 °F 10.1 °F -0.4 °F 39% 30.25 in 10.0 mi SW 10.4 mph - N/A   Overcast
1:55 PM 21.2 °F 9.5 °F -2.2 °F 36% 30.25 in 10.0 mi SW 11.5 mph - N/A   Overcast
2:14 PM 21.2 °F 10.1 °F -0.4 °F 39% 30.24 in 10.0 mi SW 10.4 mph - N/A   Overcast
2:34 PM 21.2 °F 10.1 °F -2.2 °F 36% 30.24 in 10.0 mi SW 10.4 mph - N/A   Overcast
2:55 PM 19.4 °F 7.2 °F -0.4 °F 42% 30.23 in 10.0 mi SW 11.5 mph 17.3 mph N/A   Overcast
3:14 PM 19.4 °F 5.5 °F -0.4 °F 42% 30.23 in 10.0 mi SW 15.0 mph - N/A   Overcast
3:35 PM 19.4 °F 5.5 °F 1.4 °F 46% 30.23 in 10.0 mi SSW 15.0 mph - N/A   Overcast
3:54 PM 19.4 °F 7.2 °F 3.2 °F 49% 30.23 in 10.0 mi SSW 11.5 mph - N/A   Overcast
4:14 PM 19.4 °F 6.0 °F 3.2 °F 49% 30.23 in 10.0 mi SSW 13.8 mph - N/A   Overcast
4:35 PM 19.4 °F 6.6 °F 3.2 °F 49% 30.23 in 10.0 mi SSW 12.7 mph - N/A   Overcast
4:54 PM 19.4 °F 8.6 °F 5.0 °F 54% 30.23 in 10.0 mi SSW 9.2 mph 16.1 mph N/A   Overcast
5:14 PM 21.2 °F 11.7 °F 6.8 °F 54% 30.23 in 10.0 mi SW 8.1 mph - N/A   Overcast
5:34 PM 21.2 °F 12.6 °F 8.6 °F 58% 30.23 in 10.0 mi SW 6.9 mph - N/A   Overcast
5:54 PM 21.2 °F 13.6 °F 8.6 °F 58% 30.23 in 10.0 mi SW 5.8 mph - N/A   Overcast
6:15 PM 21.2 °F 12.6 °F 10.4 °F 63% 30.22 in 10.0 mi SSW 6.9 mph - N/A   Overcast
6:34 PM 21.2 °F 13.6 °F 10.4 °F 63% 30.22 in 10.0 mi SSW 5.8 mph - N/A   Overcast
6:54 PM 21.2 °F 13.6 °F 12.2 °F 68% 30.22 in 7.0 mi South 5.8 mph - N/A Snow Light Snow
7:15 PM 21.2 °F 14.9 °F 12.2 °F 68% 30.21 in 10.0 mi South 4.6 mph - N/A   Overcast
7:34 PM 21.2 °F 13.6 °F 14.0 °F 74% 30.21 in 10.0 mi South 5.8 mph - N/A   Overcast
7:55 PM 23.0 °F 18.4 °F 15.8 °F 74% 30.21 in 10.0 mi South 3.5 mph - N/A   Overcast
8:14 PM 23.0 °F 17.0 °F 15.8 °F 74% 30.21 in 10.0 mi South 4.6 mph - N/A   Overcast
8:35 PM 24.8 °F 16.9 °F 17.6 °F 74% 30.21 in 10.0 mi SSW 6.9 mph - N/A   Overcast
8:54 PM 24.8 °F 15.3 °F 17.6 °F 74% 30.21 in 10.0 mi SSW 9.2 mph - N/A   Overcast
9:14 PM 26.6 °F 16.2 °F 17.6 °F 69% 30.21 in 10.0 mi SW 11.5 mph - N/A   Overcast
9:35 PM 26.6 °F 16.2 °F 17.6 °F 69% 30.20 in 10.0 mi SW 11.5 mph - N/A   Overcast
9:54 PM 26.6 °F 15.7 °F 17.6 °F 69% 30.21 in 10.0 mi SW 12.7 mph 18.4 mph N/A   Overcast
10:15 PM 26.6 °F 14.7 °F 15.8 °F 64% 30.20 in 10.0 mi SW 15.0 mph - N/A   Overcast
10:35 PM 26.6 °F 14.7 °F 15.8 °F 64% 30.20 in 10.0 mi SSW 15.0 mph 21.9 mph N/A   Overcast
10:54 PM 26.6 °F 15.7 °F 15.8 °F 64% 30.20 in 10.0 mi SSW 12.7 mph - N/A   Mostly Cloudy
11:15 PM 24.8 °F 13.4 °F 15.8 °F 69% 30.19 in 10.0 mi SSW 12.7 mph 18.4 mph N/A   Scattered Clouds
11:34 PM 24.8 °F 15.3 °F 17.6 °F 74% 30.19 in 10.0 mi SSW 9.2 mph - N/A   Clear
11:54 PM 24.8 °F 15.3 °F 17.6 °F 74% 30.19 in 10.0 mi SSW 9.2 mph - N/A   Clear